sensor_id;sensor_type;location;lat;lon;timestamp;P1;durP1;ratioP1;P2;durP2;ratioP2
52942;SDS011;38809;53.300;6.614;2023-11-18T00:00:34;14.10;;;11.38;;
52942;SDS011;38809;53.300;6.614;2023-11-18T00:03:00;14.35;;;11.25;;
52942;SDS011;38809;53.300;6.614;2023-11-18T00:05:26;13.85;;;11.20;;
52942;SDS011;38809;53.300;6.614;2023-11-18T00:07:52;15.45;;;12.10;;
52942;SDS011;38809;53.300;6.614;2023-11-18T00:10:19;16.30;;;12.77;;
52942;SDS011;38809;53.300;6.614;2023-11-18T00:12:45;15.90;;;12.07;;
52942;SDS011;38809;53.300;6.614;2023-11-18T00:15:12;15.95;;;12.70;;
52942;SDS011;38809;53.300;6.614;2023-11-18T00:17:38;25.35;;;13.10;;
52942;SDS011;38809;53.300;6.614;2023-11-18T00:20:04;18.27;;;13.75;;
52942;SDS011;38809;53.300;6.614;2023-11-18T00:22:38;16.92;;;12.27;;
52942;SDS011;38809;53.300;6.614;2023-11-18T00:25:04;17.60;;;11.48;;
52942;SDS011;38809;53.300;6.614;2023-11-18T00:27:33;15.20;;;11.85;;
52942;SDS011;38809;53.300;6.614;2023-11-18T00:30:01;15.20;;;11.05;;
52942;SDS011;38809;53.300;6.614;2023-11-18T00:32:30;15.43;;;11.60;;
52942;SDS011;38809;53.300;6.614;2023-11-18T00:34:56;16.05;;;11.07;;
52942;SDS011;38809;53.300;6.614;2023-11-18T00:37:23;38.50;;;11.52;;
52942;SDS011;38809;53.300;6.614;2023-11-18T00:39:49;16.52;;;9.52;;
52942;SDS011;38809;53.300;6.614;2023-11-18T00:42:15;14.43;;;9.10;;
52942;SDS011;38809;53.300;6.614;2023-11-18T00:44:41;11.50;;;9.52;;
52942;SDS011;38809;53.300;6.614;2023-11-18T00:47:07;12.02;;;9.98;;
52942;SDS011;38809;53.300;6.614;2023-11-18T00:49:33;13.55;;;10.57;;
52942;SDS011;38809;53.300;6.614;2023-11-18T00:51:59;20.02;;;12.43;;
52942;SDS011;38809;53.300;6.614;2023-11-18T00:54:25;15.98;;;12.00;;
52942;SDS011;38809;53.300;6.614;2023-11-18T00:56:52;23.55;;;13.38;;
52942;SDS011;38809;53.300;6.614;2023-11-18T00:59:18;15.95;;;11.88;;
52942;SDS011;38809;53.300;6.614;2023-11-18T01:01:44;17.70;;;12.63;;
52942;SDS011;38809;53.300;6.614;2023-11-18T01:04:10;15.55;;;11.52;;
52942;SDS011;38809;53.300;6.614;2023-11-18T01:06:36;16.85;;;13.77;;
52942;SDS011;38809;53.300;6.614;2023-11-18T01:09:02;22.20;;;14.48;;
52942;SDS011;38809;53.300;6.614;2023-11-18T01:11:29;16.55;;;12.80;;
52942;SDS011;38809;53.300;6.614;2023-11-18T01:13:55;18.90;;;13.50;;
52942;SDS011;38809;53.300;6.614;2023-11-18T01:16:21;20.92;;;14.30;;
52942;SDS011;38809;53.300;6.614;2023-11-18T01:18:47;19.23;;;14.27;;
52942;SDS011;38809;53.300;6.614;2023-11-18T01:23:42;18.45;;;11.77;;
52942;SDS011;38809;53.300;6.614;2023-11-18T01:26:10;19.70;;;13.00;;
52942;SDS011;38809;53.300;6.614;2023-11-18T01:28:37;28.35;;;13.45;;
52942;SDS011;38809;53.300;6.614;2023-11-18T01:31:08;16.77;;;12.15;;
52942;SDS011;38809;53.300;6.614;2023-11-18T01:33:38;24.00;;;13.30;;
52942;SDS011;38809;53.300;6.614;2023-11-18T01:36:10;16.73;;;12.48;;
52942;SDS011;38809;53.300;6.614;2023-11-18T01:38:37;18.73;;;12.02;;
52942;SDS011;38809;53.300;6.614;2023-11-18T01:41:04;24.67;;;12.68;;
52942;SDS011;38809;53.300;6.614;2023-11-18T01:45:59;23.02;;;11.50;;
52942;SDS011;38809;53.300;6.614;2023-11-18T01:48:31;23.02;;;12.30;;
52942;SDS011;38809;53.300;6.614;2023-11-18T01:51:01;20.15;;;11.95;;
52942;SDS011;38809;53.300;6.614;2023-11-18T01:53:29;19.90;;;12.50;;
52942;SDS011;38809;53.300;6.614;2023-11-18T01:55:55;26.88;;;12.45;;
52942;SDS011;38809;53.300;6.614;2023-11-18T01:58:21;14.32;;;11.55;;
52942;SDS011;38809;53.300;6.614;2023-11-18T02:00:48;21.75;;;13.00;;
52942;SDS011;38809;53.300;6.614;2023-11-18T02:03:16;21.00;;;12.85;;
52942;SDS011;38809;53.300;6.614;2023-11-18T02:05:42;15.57;;;12.98;;
52942;SDS011;38809;53.300;6.614;2023-11-18T02:08:09;23.67;;;13.75;;
52942;SDS011;38809;53.300;6.614;2023-11-18T02:11:00;17.30;;;13.55;;
52942;SDS011;38809;53.300;6.614;2023-11-18T02:13:29;22.05;;;15.00;;
52942;SDS011;38809;53.300;6.614;2023-11-18T02:15:57;24.38;;;15.48;;
52942;SDS011;38809;53.300;6.614;2023-11-18T02:18:26;16.38;;;13.02;;
52942;SDS011;38809;53.300;6.614;2023-11-18T02:20:54;21.55;;;14.02;;
52942;SDS011;38809;53.300;6.614;2023-11-18T02:23:22;19.50;;;13.35;;
52942;SDS011;38809;53.300;6.614;2023-11-18T02:25:49;23.52;;;14.43;;
52942;SDS011;38809;53.300;6.614;2023-11-18T02:28:15;18.90;;;13.48;;
52942;SDS011;38809;53.300;6.614;2023-11-18T02:30:41;29.45;;;14.98;;
52942;SDS011;38809;53.300;6.614;2023-11-18T02:33:13;24.23;;;14.30;;
52942;SDS011;38809;53.300;6.614;2023-11-18T02:35:53;21.67;;;15.60;;
52942;SDS011;38809;53.300;6.614;2023-11-18T02:38:31;20.15;;;14.23;;
52942;SDS011;38809;53.300;6.614;2023-11-18T02:40:57;26.27;;;16.05;;
52942;SDS011;38809;53.300;6.614;2023-11-18T02:43:24;22.20;;;14.60;;
52942;SDS011;38809;53.300;6.614;2023-11-18T02:45:53;24.10;;;17.02;;
52942;SDS011;38809;53.300;6.614;2023-11-18T02:48:21;22.05;;;16.23;;
52942;SDS011;38809;53.300;6.614;2023-11-18T02:50:48;32.88;;;15.93;;
52942;SDS011;38809;53.300;6.614;2023-11-18T02:53:15;29.73;;;15.38;;
52942;SDS011;38809;53.300;6.614;2023-11-18T02:55:41;45.47;;;18.50;;
52942;SDS011;38809;53.300;6.614;2023-11-18T02:58:07;24.80;;;16.05;;
52942;SDS011;38809;53.300;6.614;2023-11-18T03:00:33;27.38;;;16.88;;
52942;SDS011;38809;53.300;6.614;2023-11-18T03:05:28;21.10;;;14.48;;
52942;SDS011;38809;53.300;6.614;2023-11-18T03:07:55;26.73;;;17.42;;
52942;SDS011;38809;53.300;6.614;2023-11-18T03:10:23;27.40;;;17.25;;
52942;SDS011;38809;53.300;6.614;2023-11-18T03:12:49;28.65;;;19.35;;
52942;SDS011;38809;53.300;6.614;2023-11-18T03:15:16;31.88;;;18.27;;
52942;SDS011;38809;53.300;6.614;2023-11-18T03:17:45;29.70;;;19.00;;
52942;SDS011;38809;53.300;6.614;2023-11-18T03:20:13;34.30;;;19.85;;
52942;SDS011;38809;53.300;6.614;2023-11-18T03:22:44;30.85;;;17.65;;
52942;SDS011;38809;53.300;6.614;2023-11-18T03:25:11;34.83;;;20.08;;
52942;SDS011;38809;53.300;6.614;2023-11-18T03:30:04;34.00;;;18.23;;
52942;SDS011;38809;53.300;6.614;2023-11-18T03:32:32;39.28;;;20.33;;
52942;SDS011;38809;53.300;6.614;2023-11-18T03:34:58;64.97;;;21.90;;
52942;SDS011;38809;53.300;6.614;2023-11-18T03:37:24;40.45;;;20.15;;
52942;SDS011;38809;53.300;6.614;2023-11-18T03:39:51;42.33;;;19.27;;
52942;SDS011;38809;53.300;6.614;2023-11-18T03:42:17;32.72;;;18.52;;
52942;SDS011;38809;53.300;6.614;2023-11-18T03:44:44;51.10;;;18.50;;
52942;SDS011;38809;53.300;6.614;2023-11-18T03:47:13;41.78;;;19.00;;
52942;SDS011;38809;53.300;6.614;2023-11-18T03:49:39;50.45;;;17.98;;
52942;SDS011;38809;53.300;6.614;2023-11-18T03:54:32;33.33;;;17.70;;
52942;SDS011;38809;53.300;6.614;2023-11-18T03:56:58;45.53;;;18.88;;
52942;SDS011;38809;53.300;6.614;2023-11-18T03:59:24;51.45;;;18.95;;
52942;SDS011;38809;53.300;6.614;2023-11-18T04:01:51;40.22;;;17.67;;
52942;SDS011;38809;53.300;6.614;2023-11-18T04:04:17;61.83;;;19.48;;
52942;SDS011;38809;53.300;6.614;2023-11-18T04:06:43;46.17;;;18.13;;
52942;SDS011;38809;53.300;6.614;2023-11-18T04:09:11;49.05;;;17.25;;
52942;SDS011;38809;53.300;6.614;2023-11-18T04:11:38;31.42;;;16.50;;
52942;SDS011;38809;53.300;6.614;2023-11-18T04:14:04;43.53;;;17.30;;
52942;SDS011;38809;53.300;6.614;2023-11-18T04:16:30;38.88;;;17.95;;
52942;SDS011;38809;53.300;6.614;2023-11-18T04:18:56;49.03;;;17.77;;
52942;SDS011;38809;53.300;6.614;2023-11-18T04:21:22;41.17;;;15.63;;
52942;SDS011;38809;53.300;6.614;2023-11-18T04:23:48;30.45;;;16.70;;
52942;SDS011;38809;53.300;6.614;2023-11-18T04:26:15;34.00;;;15.60;;
52942;SDS011;38809;53.300;6.614;2023-11-18T04:28:41;33.80;;;14.38;;
52942;SDS011;38809;53.300;6.614;2023-11-18T04:31:07;27.55;;;15.75;;
52942;SDS011;38809;53.300;6.614;2023-11-18T04:33:33;50.20;;;16.65;;
52942;SDS011;38809;53.300;6.614;2023-11-18T04:35:59;40.63;;;15.90;;
52942;SDS011;38809;53.300;6.614;2023-11-18T04:38:25;43.50;;;17.95;;
52942;SDS011;38809;53.300;6.614;2023-11-18T04:43:19;25.60;;;15.15;;
52942;SDS011;38809;53.300;6.614;2023-11-18T04:45:45;27.13;;;15.13;;
52942;SDS011;38809;53.300;6.614;2023-11-18T04:48:11;28.70;;;14.60;;
52942;SDS011;38809;53.300;6.614;2023-11-18T04:50:41;30.23;;;16.35;;
52942;SDS011;38809;53.300;6.614;2023-11-18T04:55:35;38.08;;;15.00;;
52942;SDS011;38809;53.300;6.614;2023-11-18T04:58:01;27.92;;;15.38;;
52942;SDS011;38809;53.300;6.614;2023-11-18T05:00:27;36.97;;;16.20;;
52942;SDS011;38809;53.300;6.614;2023-11-18T05:02:54;38.35;;;15.82;;
52942;SDS011;38809;53.300;6.614;2023-11-18T05:05:20;29.95;;;16.25;;
52942;SDS011;38809;53.300;6.614;2023-11-18T05:07:48;45.28;;;16.20;;
52942;SDS011;38809;53.300;6.614;2023-11-18T05:10:14;30.02;;;14.80;;
52942;SDS011;38809;53.300;6.614;2023-11-18T05:12:40;30.05;;;15.75;;
52942;SDS011;38809;53.300;6.614;2023-11-18T05:15:08;38.13;;;15.77;;
52942;SDS011;38809;53.300;6.614;2023-11-18T05:17:38;35.20;;;16.27;;
52942;SDS011;38809;53.300;6.614;2023-11-18T05:20:04;51.45;;;16.60;;
52942;SDS011;38809;53.300;6.614;2023-11-18T05:22:33;33.30;;;16.23;;
52942;SDS011;38809;53.300;6.614;2023-11-18T05:24:59;37.35;;;17.05;;
52942;SDS011;38809;53.300;6.614;2023-11-18T05:27:25;32.55;;;15.40;;
52942;SDS011;38809;53.300;6.614;2023-11-18T05:29:52;24.50;;;15.65;;
52942;SDS011;38809;53.300;6.614;2023-11-18T05:32:26;26.75;;;15.73;;
52942;SDS011;38809;53.300;6.614;2023-11-18T05:34:52;37.40;;;17.65;;
52942;SDS011;38809;53.300;6.614;2023-11-18T05:37:23;37.50;;;16.55;;
52942;SDS011;38809;53.300;6.614;2023-11-18T05:39:49;28.58;;;16.38;;
52942;SDS011;38809;53.300;6.614;2023-11-18T05:42:24;28.60;;;17.08;;
52942;SDS011;38809;53.300;6.614;2023-11-18T05:44:51;27.73;;;17.15;;
52942;SDS011;38809;53.300;6.614;2023-11-18T05:47:24;30.75;;;16.95;;
52942;SDS011;38809;53.300;6.614;2023-11-18T05:49:51;36.00;;;17.75;;
52942;SDS011;38809;53.300;6.614;2023-11-18T05:52:18;35.20;;;18.42;;
52942;SDS011;38809;53.300;6.614;2023-11-18T05:54:45;29.33;;;16.50;;
52942;SDS011;38809;53.300;6.614;2023-11-18T05:57:12;29.20;;;16.33;;
52942;SDS011;38809;53.300;6.614;2023-11-18T05:59:39;27.33;;;16.52;;
52942;SDS011;38809;53.300;6.614;2023-11-18T06:02:05;41.95;;;17.25;;
52942;SDS011;38809;53.300;6.614;2023-11-18T06:04:31;27.52;;;17.55;;
52942;SDS011;38809;53.300;6.614;2023-11-18T06:06:57;28.23;;;17.05;;
52942;SDS011;38809;53.300;6.614;2023-11-18T06:09:23;26.42;;;17.05;;
52942;SDS011;38809;53.300;6.614;2023-11-18T06:11:51;28.45;;;16.08;;
52942;SDS011;38809;53.300;6.614;2023-11-18T06:14:18;30.55;;;18.77;;
52942;SDS011;38809;53.300;6.614;2023-11-18T06:16:46;38.33;;;19.10;;
52942;SDS011;38809;53.300;6.614;2023-11-18T06:19:15;31.80;;;17.58;;
52942;SDS011;38809;53.300;6.614;2023-11-18T06:21:41;32.78;;;17.70;;
52942;SDS011;38809;53.300;6.614;2023-11-18T06:24:07;37.38;;;18.65;;
52942;SDS011;38809;53.300;6.614;2023-11-18T06:26:36;42.55;;;18.48;;
52942;SDS011;38809;53.300;6.614;2023-11-18T06:29:02;34.38;;;18.88;;
52942;SDS011;38809;53.300;6.614;2023-11-18T06:31:31;34.42;;;18.67;;
52942;SDS011;38809;53.300;6.614;2023-11-18T06:33:58;40.75;;;19.92;;
52942;SDS011;38809;53.300;6.614;2023-11-18T06:36:24;38.88;;;19.65;;
52942;SDS011;38809;53.300;6.614;2023-11-18T06:38:52;44.45;;;20.55;;
52942;SDS011;38809;53.300;6.614;2023-11-18T06:41:22;42.70;;;18.83;;
52942;SDS011;38809;53.300;6.614;2023-11-18T06:43:50;32.95;;;18.67;;
52942;SDS011;38809;53.300;6.614;2023-11-18T06:46:26;45.45;;;18.58;;
52942;SDS011;38809;53.300;6.614;2023-11-18T06:48:57;44.92;;;17.92;;
52942;SDS011;38809;53.300;6.614;2023-11-18T06:51:25;33.95;;;20.10;;
52942;SDS011;38809;53.300;6.614;2023-11-18T06:53:52;34.10;;;19.65;;
52942;SDS011;38809;53.300;6.614;2023-11-18T06:56:24;34.35;;;19.38;;
52942;SDS011;38809;53.300;6.614;2023-11-18T06:58:50;35.95;;;18.00;;
52942;SDS011;38809;53.300;6.614;2023-11-18T07:01:17;37.40;;;20.17;;
52942;SDS011;38809;53.300;6.614;2023-11-18T07:03:43;43.97;;;20.20;;
52942;SDS011;38809;53.300;6.614;2023-11-18T07:06:10;36.13;;;19.42;;
52942;SDS011;38809;53.300;6.614;2023-11-18T07:08:39;34.45;;;20.08;;
52942;SDS011;38809;53.300;6.614;2023-11-18T07:11:05;32.75;;;19.95;;
52942;SDS011;38809;53.300;6.614;2023-11-18T07:13:32;43.75;;;21.95;;
52942;SDS011;38809;53.300;6.614;2023-11-18T07:16:01;47.10;;;22.23;;
52942;SDS011;38809;53.300;6.614;2023-11-18T07:18:28;39.35;;;22.05;;
52942;SDS011;38809;53.300;6.614;2023-11-18T07:21:01;44.78;;;22.75;;
52942;SDS011;38809;53.300;6.614;2023-11-18T07:23:29;44.28;;;22.25;;
52942;SDS011;38809;53.300;6.614;2023-11-18T07:25:56;46.38;;;22.20;;
52942;SDS011;38809;53.300;6.614;2023-11-18T07:28:23;49.38;;;24.13;;
52942;SDS011;38809;53.300;6.614;2023-11-18T07:30:49;49.33;;;23.63;;
52942;SDS011;38809;53.300;6.614;2023-11-18T07:33:15;43.67;;;21.98;;
52942;SDS011;38809;53.300;6.614;2023-11-18T07:38:07;46.40;;;22.48;;
52942;SDS011;38809;53.300;6.614;2023-11-18T07:40:34;56.67;;;23.50;;
52942;SDS011;38809;53.300;6.614;2023-11-18T07:43:00;56.15;;;24.25;;
52942;SDS011;38809;53.300;6.614;2023-11-18T07:45:35;48.25;;;24.27;;
52942;SDS011;38809;53.300;6.614;2023-11-18T07:48:10;55.88;;;24.17;;
52942;SDS011;38809;53.300;6.614;2023-11-18T07:50:37;44.97;;;22.30;;
52942;SDS011;38809;53.300;6.614;2023-11-18T07:53:05;52.53;;;24.55;;
52942;SDS011;38809;53.300;6.614;2023-11-18T07:55:31;51.75;;;24.10;;
52942;SDS011;38809;53.300;6.614;2023-11-18T07:58:10;48.30;;;24.20;;
52942;SDS011;38809;53.300;6.614;2023-11-18T08:00:37;48.17;;;22.52;;
52942;SDS011;38809;53.300;6.614;2023-11-18T08:03:04;49.88;;;23.15;;
52942;SDS011;38809;53.300;6.614;2023-11-18T08:05:32;42.10;;;21.98;;
52942;SDS011;38809;53.300;6.614;2023-11-18T08:07:58;46.08;;;21.63;;
52942;SDS011;38809;53.300;6.614;2023-11-18T08:10:24;53.40;;;23.90;;
52942;SDS011;38809;53.300;6.614;2023-11-18T08:12:51;48.40;;;23.58;;
52942;SDS011;38809;53.300;6.614;2023-11-18T08:15:19;55.50;;;24.55;;
52942;SDS011;38809;53.300;6.614;2023-11-18T08:17:45;54.50;;;24.48;;
52942;SDS011;38809;53.300;6.614;2023-11-18T08:20:11;52.15;;;24.30;;
52942;SDS011;38809;53.300;6.614;2023-11-18T08:22:41;48.40;;;23.50;;
52942;SDS011;38809;53.300;6.614;2023-11-18T08:25:09;54.40;;;24.60;;
52942;SDS011;38809;53.300;6.614;2023-11-18T08:27:35;51.78;;;24.67;;
52942;SDS011;38809;53.300;6.614;2023-11-18T08:30:02;51.95;;;24.23;;
52942;SDS011;38809;53.300;6.614;2023-11-18T08:32:36;53.67;;;25.20;;
52942;SDS011;38809;53.300;6.614;2023-11-18T08:35:03;55.95;;;25.73;;
52942;SDS011;38809;53.300;6.614;2023-11-18T08:37:31;48.50;;;22.25;;
52942;SDS011;38809;53.300;6.614;2023-11-18T08:39:58;58.45;;;25.50;;
52942;SDS011;38809;53.300;6.614;2023-11-18T08:42:25;62.88;;;25.65;;
52942;SDS011;38809;53.300;6.614;2023-11-18T08:44:52;56.22;;;24.85;;
52942;SDS011;38809;53.300;6.614;2023-11-18T08:47:20;57.45;;;26.13;;
52942;SDS011;38809;53.300;6.614;2023-11-18T08:49:46;52.35;;;24.67;;
52942;SDS011;38809;53.300;6.614;2023-11-18T08:52:12;62.03;;;26.73;;
52942;SDS011;38809;53.300;6.614;2023-11-18T08:54:39;60.80;;;25.92;;
52942;SDS011;38809;53.300;6.614;2023-11-18T08:57:25;63.25;;;26.77;;
52942;SDS011;38809;53.300;6.614;2023-11-18T08:59:51;74.45;;;25.70;;
52942;SDS011;38809;53.300;6.614;2023-11-18T09:02:17;65.03;;;26.50;;
52942;SDS011;38809;53.300;6.614;2023-11-18T09:04:48;64.53;;;25.95;;
52942;SDS011;38809;53.300;6.614;2023-11-18T09:09:40;61.22;;;25.23;;
52942;SDS011;38809;53.300;6.614;2023-11-18T09:12:07;74.47;;;28.52;;
52942;SDS011;38809;53.300;6.614;2023-11-18T09:14:34;75.47;;;28.77;;
52942;SDS011;38809;53.300;6.614;2023-11-18T09:17:00;63.22;;;25.70;;
52942;SDS011;38809;53.300;6.614;2023-11-18T09:19:27;61.03;;;27.33;;
52942;SDS011;38809;53.300;6.614;2023-11-18T09:21:53;64.63;;;26.27;;
52942;SDS011;38809;53.300;6.614;2023-11-18T09:26:48;65.18;;;25.85;;
52942;SDS011;38809;53.300;6.614;2023-11-18T09:29:15;71.07;;;27.77;;
52942;SDS011;38809;53.300;6.614;2023-11-18T09:31:46;74.57;;;26.67;;
52942;SDS011;38809;53.300;6.614;2023-11-18T09:34:17;72.22;;;29.23;;
52942;SDS011;38809;53.300;6.614;2023-11-18T09:36:52;64.30;;;26.33;;
52942;SDS011;38809;53.300;6.614;2023-11-18T09:39:18;67.35;;;28.23;;
52942;SDS011;38809;53.300;6.614;2023-11-18T09:42:04;67.05;;;27.45;;
52942;SDS011;38809;53.300;6.614;2023-11-18T09:44:33;61.95;;;25.48;;
52942;SDS011;38809;53.300;6.614;2023-11-18T09:46:59;62.05;;;27.38;;
52942;SDS011;38809;53.300;6.614;2023-11-18T09:49:32;59.55;;;26.92;;
52942;SDS011;38809;53.300;6.614;2023-11-18T09:51:58;65.95;;;25.98;;
52942;SDS011;38809;53.300;6.614;2023-11-18T09:56:56;64.47;;;26.85;;
52942;SDS011;38809;53.300;6.614;2023-11-18T09:59:35;60.97;;;26.05;;
52942;SDS011;38809;53.300;6.614;2023-11-18T10:02:08;62.05;;;26.35;;
52942;SDS011;38809;53.300;6.614;2023-11-18T10:04:36;52.75;;;25.33;;
52942;SDS011;38809;53.300;6.614;2023-11-18T10:07:04;61.40;;;26.58;;
52942;SDS011;38809;53.300;6.614;2023-11-18T10:09:32;61.00;;;28.13;;
52942;SDS011;38809;53.300;6.614;2023-11-18T10:12:08;61.67;;;26.90;;
52942;SDS011;38809;53.300;6.614;2023-11-18T10:14:40;61.00;;;26.58;;
52942;SDS011;38809;53.300;6.614;2023-11-18T10:17:08;61.25;;;28.80;;
52942;SDS011;38809;53.300;6.614;2023-11-18T10:19:53;64.78;;;29.20;;
52942;SDS011;38809;53.300;6.614;2023-11-18T10:24:51;68.20;;;30.00;;
52942;SDS011;38809;53.300;6.614;2023-11-18T10:27:26;65.22;;;28.58;;
52942;SDS011;38809;53.300;6.614;2023-11-18T10:30:02;66.13;;;31.27;;
52942;SDS011;38809;53.300;6.614;2023-11-18T10:32:29;63.08;;;30.65;;
52942;SDS011;38809;53.300;6.614;2023-11-18T10:35:00;60.85;;;29.83;;
52942;SDS011;38809;53.300;6.614;2023-11-18T10:39:55;61.63;;;31.08;;
52942;SDS011;38809;53.300;6.614;2023-11-18T10:44:54;58.88;;;28.65;;
52942;SDS011;38809;53.300;6.614;2023-11-18T10:47:26;60.33;;;31.30;;
52942;SDS011;38809;53.300;6.614;2023-11-18T10:49:54;57.63;;;29.55;;
52942;SDS011;38809;53.300;6.614;2023-11-18T10:52:24;59.20;;;30.95;;
52942;SDS011;38809;53.300;6.614;2023-11-18T10:55:00;56.33;;;29.97;;
52942;SDS011;38809;53.300;6.614;2023-11-18T10:57:32;58.17;;;30.45;;
52942;SDS011;38809;53.300;6.614;2023-11-18T11:00:04;60.17;;;31.48;;
52942;SDS011;38809;53.300;6.614;2023-11-18T11:02:42;61.95;;;33.42;;
52942;SDS011;38809;53.300;6.614;2023-11-18T11:05:09;62.60;;;32.72;;
52942;SDS011;38809;53.300;6.614;2023-11-18T11:07:41;58.10;;;31.73;;
52942;SDS011;38809;53.300;6.614;2023-11-18T11:10:08;56.50;;;30.98;;
52942;SDS011;38809;53.300;6.614;2023-11-18T11:12:40;62.03;;;31.02;;
52942;SDS011;38809;53.300;6.614;2023-11-18T11:15:17;51.35;;;28.33;;
52942;SDS011;38809;53.300;6.614;2023-11-18T11:17:48;56.90;;;30.17;;
52942;SDS011;38809;53.300;6.614;2023-11-18T11:20:20;51.42;;;28.55;;
52942;SDS011;38809;53.300;6.614;2023-11-18T11:25:33;47.47;;;28.27;;
52942;SDS011;38809;53.300;6.614;2023-11-18T11:28:09;48.25;;;27.60;;
52942;SDS011;38809;53.300;6.614;2023-11-18T11:30:45;53.85;;;28.33;;
52942;SDS011;38809;53.300;6.614;2023-11-18T11:36:11;44.65;;;26.05;;
52942;SDS011;38809;53.300;6.614;2023-11-18T11:38:50;47.10;;;27.50;;
52942;SDS011;38809;53.300;6.614;2023-11-18T11:41:44;43.70;;;25.40;;
52942;SDS011;38809;53.300;6.614;2023-11-18T11:44:15;47.72;;;27.20;;
52942;SDS011;38809;53.300;6.614;2023-11-18T11:46:53;44.90;;;25.38;;
52942;SDS011;38809;53.300;6.614;2023-11-18T11:49:22;45.08;;;25.77;;
52942;SDS011;38809;53.300;6.614;2023-11-18T11:54:40;41.92;;;24.95;;
52942;SDS011;38809;53.300;6.614;2023-11-18T11:57:10;39.85;;;22.92;;
52942;SDS011;38809;53.300;6.614;2023-11-18T12:02:51;36.00;;;22.05;;
52942;SDS011;38809;53.300;6.614;2023-11-18T12:05:35;37.22;;;22.00;;
52942;SDS011;38809;53.300;6.614;2023-11-18T12:08:08;35.85;;;21.52;;
52942;SDS011;38809;53.300;6.614;2023-11-18T12:10:38;34.75;;;20.88;;
52942;SDS011;38809;53.300;6.614;2023-11-18T12:13:23;32.28;;;20.20;;
52942;SDS011;38809;53.300;6.614;2023-11-18T12:15:54;33.40;;;19.77;;
52942;SDS011;38809;53.300;6.614;2023-11-18T12:18:42;29.55;;;18.85;;
52942;SDS011;38809;53.300;6.614;2023-11-18T12:21:09;33.40;;;20.25;;
52942;SDS011;38809;53.300;6.614;2023-11-18T12:24:14;32.47;;;20.52;;
52942;SDS011;38809;53.300;6.614;2023-11-18T12:26:43;29.20;;;17.90;;
52942;SDS011;38809;53.300;6.614;2023-11-18T12:29:31;30.40;;;18.88;;
52942;SDS011;38809;53.300;6.614;2023-11-18T12:31:57;29.17;;;19.10;;
52942;SDS011;38809;53.300;6.614;2023-11-18T12:34:24;28.17;;;19.08;;
52942;SDS011;38809;53.300;6.614;2023-11-18T12:42:05;27.65;;;17.17;;
52942;SDS011;38809;53.300;6.614;2023-11-18T12:47:21;29.08;;;18.23;;
52942;SDS011;38809;53.300;6.614;2023-11-18T12:49:53;28.50;;;16.17;;
52942;SDS011;38809;53.300;6.614;2023-11-18T12:52:20;27.45;;;17.55;;
52942;SDS011;38809;53.300;6.614;2023-11-18T12:54:47;27.65;;;17.23;;
52942;SDS011;38809;53.300;6.614;2023-11-18T12:57:17;26.10;;;15.95;;
52942;SDS011;38809;53.300;6.614;2023-11-18T12:59:48;27.20;;;17.23;;
52942;SDS011;38809;53.300;6.614;2023-11-18T13:02:15;28.52;;;18.70;;
52942;SDS011;38809;53.300;6.614;2023-11-18T13:04:48;25.30;;;15.48;;
52942;SDS011;38809;53.300;6.614;2023-11-18T13:09:42;25.50;;;15.88;;
52942;SDS011;38809;53.300;6.614;2023-11-18T13:12:10;24.55;;;14.93;;
52942;SDS011;38809;53.300;6.614;2023-11-18T13:14:40;24.95;;;15.55;;
52942;SDS011;38809;53.300;6.614;2023-11-18T13:17:10;26.13;;;15.88;;
52942;SDS011;38809;53.300;6.614;2023-11-18T13:19:36;23.92;;;15.18;;
52942;SDS011;38809;53.300;6.614;2023-11-18T13:22:03;24.73;;;16.40;;
52942;SDS011;38809;53.300;6.614;2023-11-18T13:24:32;23.77;;;14.98;;
52942;SDS011;38809;53.300;6.614;2023-11-18T13:26:59;26.13;;;16.17;;
52942;SDS011;38809;53.300;6.614;2023-11-18T13:29:30;23.60;;;14.20;;
52942;SDS011;38809;53.300;6.614;2023-11-18T13:31:59;26.80;;;15.55;;
52942;SDS011;38809;53.300;6.614;2023-11-18T13:34:29;25.13;;;15.63;;
52942;SDS011;38809;53.300;6.614;2023-11-18T13:36:57;23.95;;;15.00;;
52942;SDS011;38809;53.300;6.614;2023-11-18T13:39:25;20.88;;;14.27;;
52942;SDS011;38809;53.300;6.614;2023-11-18T13:41:54;24.70;;;15.73;;
52942;SDS011;38809;53.300;6.614;2023-11-18T13:47:06;25.23;;;15.23;;
52942;SDS011;38809;53.300;6.614;2023-11-18T13:49:33;24.95;;;14.40;;
52942;SDS011;38809;53.300;6.614;2023-11-18T13:52:05;28.98;;;14.93;;
52942;SDS011;38809;53.300;6.614;2023-11-18T13:54:33;22.92;;;12.65;;
52942;SDS011;38809;53.300;6.614;2023-11-18T13:57:00;23.23;;;13.93;;
52942;SDS011;38809;53.300;6.614;2023-11-18T13:59:28;22.08;;;13.25;;
52942;SDS011;38809;53.300;6.614;2023-11-18T14:01:54;20.65;;;13.57;;
52942;SDS011;38809;53.300;6.614;2023-11-18T14:04:24;22.48;;;12.90;;
52942;SDS011;38809;53.300;6.614;2023-11-18T14:06:51;22.52;;;12.45;;
52942;SDS011;38809;53.300;6.614;2023-11-18T14:09:20;20.80;;;13.13;;
52942;SDS011;38809;53.300;6.614;2023-11-18T14:11:47;20.75;;;12.80;;
52942;SDS011;38809;53.300;6.614;2023-11-18T14:14:13;21.27;;;11.95;;
52942;SDS011;38809;53.300;6.614;2023-11-18T14:16:40;21.23;;;12.02;;
52942;SDS011;38809;53.300;6.614;2023-11-18T14:19:06;20.45;;;12.10;;
52942;SDS011;38809;53.300;6.614;2023-11-18T14:23:58;19.95;;;11.02;;
52942;SDS011;38809;53.300;6.614;2023-11-18T14:26:28;19.98;;;11.93;;
52942;SDS011;38809;53.300;6.614;2023-11-18T14:28:56;18.05;;;11.55;;
52942;SDS011;38809;53.300;6.614;2023-11-18T14:31:24;19.15;;;11.70;;
52942;SDS011;38809;53.300;6.614;2023-11-18T14:33:50;19.52;;;11.38;;
52942;SDS011;38809;53.300;6.614;2023-11-18T14:36:17;19.42;;;12.02;;
52942;SDS011;38809;53.300;6.614;2023-11-18T14:38:44;24.23;;;12.65;;
52942;SDS011;38809;53.300;6.614;2023-11-18T14:41:11;19.08;;;12.02;;
52942;SDS011;38809;53.300;6.614;2023-11-18T14:43:37;21.38;;;12.10;;
52942;SDS011;38809;53.300;6.614;2023-11-18T14:46:04;18.45;;;11.23;;
52942;SDS011;38809;53.300;6.614;2023-11-18T14:48:30;22.23;;;12.38;;
52942;SDS011;38809;53.300;6.614;2023-11-18T14:50:56;21.15;;;12.40;;
52942;SDS011;38809;53.300;6.614;2023-11-18T14:53:22;22.17;;;12.38;;
52942;SDS011;38809;53.300;6.614;2023-11-18T14:55:50;22.92;;;12.43;;
52942;SDS011;38809;53.300;6.614;2023-11-18T14:58:16;20.70;;;11.65;;
52942;SDS011;38809;53.300;6.614;2023-11-18T15:00:42;21.05;;;12.00;;
52942;SDS011;38809;53.300;6.614;2023-11-18T15:03:08;20.33;;;12.65;;
52942;SDS011;38809;53.300;6.614;2023-11-18T15:05:35;22.00;;;12.75;;
52942;SDS011;38809;53.300;6.614;2023-11-18T15:08:03;21.45;;;11.80;;
52942;SDS011;38809;53.300;6.614;2023-11-18T15:10:34;20.10;;;12.65;;
52942;SDS011;38809;53.300;6.614;2023-11-18T15:13:02;21.35;;;12.23;;
52942;SDS011;38809;53.300;6.614;2023-11-18T15:15:29;23.92;;;13.48;;
52942;SDS011;38809;53.300;6.614;2023-11-18T15:17:59;18.23;;;12.18;;
52942;SDS011;38809;53.300;6.614;2023-11-18T15:20:28;20.75;;;13.00;;
52942;SDS011;38809;53.300;6.614;2023-11-18T15:22:55;18.98;;;12.25;;
52942;SDS011;38809;53.300;6.614;2023-11-18T15:25:21;19.73;;;11.85;;
52942;SDS011;38809;53.300;6.614;2023-11-18T15:27:47;17.20;;;11.88;;
52942;SDS011;38809;53.300;6.614;2023-11-18T15:30:14;17.85;;;12.10;;